Time;durP1;ratioP1;P1;durP2;ratioP2;P2;SDS_P1;SDS_P2;PMS_P1;PMS_P2;Temp;Humidity;BMP_temperature;BMP_pressure;BME280_temperature;BME280_humidity;BME280_pressure;Samples;Min_cycle;Max_cycle;Signal;HPM_P1;HPM_P2
2022/12/04 01:25:14;;;;;;;;;;;;;;;;;;5835499;23;19942;-84
2022/12/04 02:24:08;;;;;;;;;;;;;;;;;;5960508;23;19921;-83
2022/12/04 02:46:16;;;;;;;;;;;;;;;;;;5324145;23;19985;-84
2022/12/04 02:48:42;;;;;;;;;;;;;;;;;;4979930;29;19898;-83
2022/12/04 02:51:13;;;;;;;;;;;;;;;;;;4947941;29;19991;-84
2022/12/04 02:53:39;;;;;;;;;;;;;;;;;;4980554;28;19906;-85
2022/12/04 03:33:52;;;;;;;;;;;;;;;;;;5947287;23;19921;-83
2022/12/04 03:36:18;;;;;;;;;;;;;;;;;;5733959;23;19918;-82
2022/12/04 04:51:35;;;;;;;;;;;;;;;;;;5415128;23;19911;-84
2022/12/04 04:59:26;;;;;;;;;;;;;;;;;;5192697;23;19910;-85
2022/12/04 05:02:00;;;;;;;;;;;;;;;;;;4965615;28;19920;-84
2022/12/04 05:04:40;;;;;;;;;;;;;;;;;;6003280;23;19995;-84
2022/12/04 06:50:07;;;;;;;;;;;;;;;;;;5682824;23;20398;-78
2022/12/04 08:01:27;;;;;;;;;;;;;;;;;;5455277;23;19959;-82
2022/12/04 08:03:52;;;;;;;;;;;;;;;;;;5121911;23;19927;-84
2022/12/04 08:06:18;;;;;;;;;;;;;;;;;;4965376;28;19910;-85
2022/12/04 08:08:44;;;;;;;;;;;;;;;;;;4980968;28;19915;-84
2022/12/04 08:11:09;;;;;;;;;;;;;;;;;;4964789;29;19902;-83
2022/12/04 08:13:35;;;;;;;;;;;;;;;;;;4980229;28;19921;-84
2022/12/04 08:18:40;;;;;;;;;;;;;;;;;;4961370;28;19915;-83
2022/12/04 08:21:15;;;;;;;;;;;;;;;;;;5355920;23;20033;-88
2022/12/04 08:23:41;;;;;;;;;;;;;;;;;;4941016;29;20374;-87
2022/12/04 08:26:06;;;;;;;;;;;;;;;;;;4941684;29;19925;-87
2022/12/04 08:28:32;;;;;;;;;;;;;;;;;;4926776;29;20279;-88
2022/12/04 08:30:57;;;;;;;;;;;;;;;;;;4947250;29;20012;-88
2022/12/04 08:33:23;;;;;;;;;;;;;;;;;;4908255;29;20359;-88
2022/12/04 08:35:48;;;;;;;;;;;;;;;;;;4939238;29;19922;-88
2022/12/04 08:38:13;;;;;;;;;;;;;;;;;;4923136;29;20367;-87
2022/12/04 08:40:39;;;;;;;;;;;;;;;;;;4927120;29;19922;-89
2022/12/04 08:43:04;;;;;;;;;;;;;;;;;;4907490;29;20271;-88
2022/12/04 08:45:30;;;;;;;;;;;;;;;;;;4907827;29;19919;-88
2022/12/04 08:47:55;;;;;;;;;;;;;;;;;;4906295;29;20001;-89
2022/12/04 08:50:21;;;;;;;;;;;;;;;;;;4907420;29;20000;-88
2022/12/04 08:52:46;;;;;;;;;;;;;;;;;;4938070;29;19966;-88
2022/12/04 08:55:12;;;;;;;;;;;;;;;;;;4906946;29;19938;-88
2022/12/04 08:57:38;;;;;;;;;;;;;;;;;;4923875;29;19919;-87
2022/12/04 09:00:04;;;;;;;;;;;;;;;;;;4906987;29;20290;-88
2022/12/04 09:02:29;;;;;;;;;;;;;;;;;;4906402;29;20294;-89
2022/12/04 09:04:55;;;;;;;;;;;;;;;;;;4923611;29;20290;-88
2022/12/04 09:07:20;;;;;;;;;;;;;;;;;;4938429;29;19919;-87
2022/12/04 09:09:46;;;;;;;;;;;;;;;;;;4922464;29;19915;-90
2022/12/04 09:12:14;;;;;;;;;;;;;;;;;;4937318;29;20349;-88
2022/12/04 09:14:39;;;;;;;;;;;;;;;;;;4920741;29;19922;-89
2022/12/04 09:17:05;;;;;;;;;;;;;;;;;;4904908;29;20282;-89
2022/12/04 09:19:31;;;;;;;;;;;;;;;;;;4920989;29;19919;-87
2022/12/04 09:21:56;;;;;;;;;;;;;;;;;;4937555;29;19934;-87
2022/12/04 09:24:22;;;;;;;;;;;;;;;;;;4906691;29;19929;-89
2022/12/04 09:26:47;;;;;;;;;;;;;;;;;;4922069;29;19914;-88
2022/12/04 09:29:13;;;;;;;;;;;;;;;;;;4922564;29;19915;-89
2022/12/04 09:31:38;;;;;;;;;;;;;;;;;;4906507;29;19914;-88
2022/12/04 09:34:04;;;;;;;;;;;;;;;;;;4919995;29;19919;-88
2022/12/04 09:36:29;;;;;;;;;;;;;;;;;;4939172;29;19991;-87
2022/12/04 09:38:55;;;;;;;;;;;;;;;;;;4922923;29;19923;-87
2022/12/04 09:41:20;;;;;;;;;;;;;;;;;;4940263;29;20299;-87
2022/12/04 09:43:46;;;;;;;;;;;;;;;;;;4922500;29;20393;-87
2022/12/04 09:46:12;;;;;;;;;;;;;;;;;;4937265;29;19922;-88
2022/12/04 09:48:37;;;;;;;;;;;;;;;;;;4938745;29;19914;-88
2022/12/04 09:51:03;;;;;;;;;;;;;;;;;;4917535;29;19986;-89
2022/12/04 09:53:28;;;;;;;;;;;;;;;;;;4903321;29;20298;-88
2022/12/04 09:55:54;;;;;;;;;;;;;;;;;;4918224;29;19942;-88
2022/12/04 09:58:20;;;;;;;;;;;;;;;;;;4918046;29;19922;-86
2022/12/04 10:00:45;;;;;;;;;;;;;;;;;;4933135;29;20284;-91
2022/12/04 10:03:11;;;;;;;;;;;;;;;;;;4917297;29;19924;-89
2022/12/04 10:05:36;;;;;;;;;;;;;;;;;;4932810;29;19926;-87
2022/12/04 10:08:02;;;;;;;;;;;;;;;;;;4903317;29;19919;-89
2022/12/04 10:10:28;;;;;;;;;;;;;;;;;;4903557;29;19914;-88
2022/12/04 10:12:53;;;;;;;;;;;;;;;;;;4919479;29;19965;-87
2022/12/04 10:15:19;;;;;;;;;;;;;;;;;;4935214;29;19956;-86
2022/12/04 10:17:44;;;;;;;;;;;;;;;;;;4936535;29;19982;-88
2022/12/04 10:20:09;;;;;;;;;;;;;;;;;;4934421;29;19915;-88
2022/12/04 10:22:35;;;;;;;;;;;;;;;;;;4919175;29;19926;-84
2022/12/04 10:25:01;;;;;;;;;;;;;;;;;;4918858;29;20037;-87
2022/12/04 10:27:26;;;;;;;;;;;;;;;;;;4902483;29;20117;-89
2022/12/04 10:29:52;;;;;;;;;;;;;;;;;;4919165;29;20087;-89
2022/12/04 10:32:17;;;;;;;;;;;;;;;;;;4903307;29;20285;-90
2022/12/04 10:34:43;;;;;;;;;;;;;;;;;;4923056;29;20014;-89
2022/12/04 10:37:08;;;;;;;;;;;;;;;;;;4909138;29;20017;-87
2022/12/04 10:39:35;;;;;;;;;;;;;;;;;;4910260;29;19954;-89
2022/12/04 10:42:01;;;;;;;;;;;;;;;;;;4924547;29;19975;-87
2022/12/04 10:44:27;;;;;;;;;;;;;;;;;;4919822;29;19923;-86
2022/12/04 10:46:52;;;;;;;;;;;;;;;;;;4904219;29;19923;-89
2022/12/04 10:49:18;;;;;;;;;;;;;;;;;;4904384;29;19915;-89
2022/12/04 10:51:44;;;;;;;;;;;;;;;;;;4889439;29;20002;-87
2022/12/04 10:54:10;;;;;;;;;;;;;;;;;;4918822;29;19962;-89
2022/12/04 10:56:36;;;;;;;;;;;;;;;;;;4903633;29;19922;-89
2022/12/04 10:59:01;;;;;;;;;;;;;;;;;;4922451;29;20266;-90
2022/12/04 11:01:27;;;;;;;;;;;;;;;;;;4928470;29;20331;-90
2022/12/04 11:03:52;;;;;;;;;;;;;;;;;;4939099;29;19923;-88
2022/12/04 11:06:18;;;;;;;;;;;;;;;;;;4938683;29;19919;-89
2022/12/04 11:08:43;;;;;;;;;;;;;;;;;;4921998;29;19942;-90
2022/12/04 11:11:10;;;;;;;;;;;;;;;;;;4937689;29;19969;-90
2022/12/04 11:13:35;;;;;;;;;;;;;;;;;;4905643;29;19915;-88
2022/12/04 11:16:01;;;;;;;;;;;;;;;;;;4937191;29;20335;-87
2022/12/04 11:18:26;;;;;;;;;;;;;;;;;;4920529;29;20030;-91
2022/12/04 11:20:52;;;;;;;;;;;;;;;;;;4937016;29;19922;-92
2022/12/04 11:23:17;;;;;;;;;;;;;;;;;;4921675;29;19918;-89
2022/12/04 11:25:43;;;;;;;;;;;;;;;;;;4905900;29;19973;-89
2022/12/04 11:28:08;;;;;;;;;;;;;;;;;;4906369;29;20298;-90
2022/12/04 11:30:34;;;;;;;;;;;;;;;;;;4937007;29;19914;-91
2022/12/04 11:32:59;;;;;;;;;;;;;;;;;;4937871;29;20425;-91
2022/12/04 11:35:25;;;;;;;;;;;;;;;;;;4942307;29;20029;-89
2022/12/04 11:37:50;;;;;;;;;;;;;;;;;;4923032;29;19915;-90
2022/12/04 11:40:16;;;;;;;;;;;;;;;;;;4941557;29;19938;-90
2022/12/04 11:42:41;;;;;;;;;;;;;;;;;;4923295;29;20540;-90
2022/12/04 11:45:08;;;;;;;;;;;;;;;;;;4906601;29;19918;-90
2022/12/04 11:47:33;;;;;;;;;;;;;;;;;;4905877;29;19923;-90
2022/12/04 11:50:03;;;;;;;;;;;;;;;;;;4921704;29;21727;-90
2022/12/04 11:52:28;;;;;;;;;;;;;;;;;;4921742;29;19921;-89
2022/12/04 11:54:54;;;;;;;;;;;;;;;;;;4921016;29;20001;-89
2022/12/04 11:57:20;;;;;;;;;;;;;;;;;;4938117;29;20207;-92
2022/12/04 11:59:45;;;;;;;;;;;;;;;;;;4937103;29;19980;-91
2022/12/04 12:02:11;;;;;;;;;;;;;;;;;;4921650;29;19915;-89
2022/12/04 12:04:36;;;;;;;;;;;;;;;;;;4921995;29;19921;-91
2022/12/04 12:07:02;;;;;;;;;;;;;;;;;;4936990;29;20009;-89
2022/12/04 12:09:27;;;;;;;;;;;;;;;;;;4921860;29;19915;-92
2022/12/04 12:11:53;;;;;;;;;;;;;;;;;;4938143;29;19987;-89
2022/12/04 12:14:20;;;;;;;;;;;;;;;;;;4937437;29;19942;-89
2022/12/04 12:16:45;;;;;;;;;;;;;;;;;;4935716;29;19915;-91
2022/12/04 12:19:11;;;;;;;;;;;;;;;;;;4920981;29;19970;-87
2022/12/04 12:21:37;;;;;;;;;;;;;;;;;;4936155;29;20470;-92
2022/12/04 12:24:02;;;;;;;;;;;;;;;;;;4904711;29;19915;-90
2022/12/04 12:26:27;;;;;;;;;;;;;;;;;;4920461;29;19989;-88
2022/12/04 12:28:53;;;;;;;;;;;;;;;;;;4936486;29;19915;-92
2022/12/04 12:31:18;;;;;;;;;;;;;;;;;;4920396;29;20283;-90
2022/12/04 12:33:44;;;;;;;;;;;;;;;;;;4903257;29;19987;-89
2022/12/04 12:36:09;;;;;;;;;;;;;;;;;;4920954;29;19915;-84
2022/12/04 12:38:35;;;;;;;;;;;;;;;;;;4936182;29;19937;-92
2022/12/04 12:41:00;;;;;;;;;;;;;;;;;;4920264;29;19919;-89
2022/12/04 12:43:26;;;;;;;;;;;;;;;;;;4920284;29;20324;-85
2022/12/04 12:45:51;;;;;;;;;;;;;;;;;;4936216;29;20367;-86
2022/12/04 12:48:16;;;;;;;;;;;;;;;;;;4935933;29;20021;-87
2022/12/04 12:50:42;;;;;;;;;;;;;;;;;;4934766;29;19927;-85
2022/12/04 12:53:07;;;;;;;;;;;;;;;;;;4952230;29;19915;-87
2022/12/04 12:55:33;;;;;;;;;;;;;;;;;;4923403;29;19915;-89
2022/12/04 12:57:58;;;;;;;;;;;;;;;;;;4955768;29;19938;-89
2022/12/04 13:00:24;;;;;;;;;;;;;;;;;;4923061;29;19936;-90
2022/12/04 13:02:50;;;;;;;;;;;;;;;;;;4953490;29;19978;-89
2022/12/04 13:05:15;;;;;;;;;;;;;;;;;;4922419;29;20279;-88
2022/12/04 13:07:41;;;;;;;;;;;;;;;;;;4928785;29;20307;-88
2022/12/04 13:10:07;;;;;;;;;;;;;;;;;;4906945;29;19973;-91
2022/12/04 13:12:32;;;;;;;;;;;;;;;;;;4923734;29;20334;-89
2022/12/04 13:14:58;;;;;;;;;;;;;;;;;;4922587;29;19915;-88
2022/12/04 13:17:23;;;;;;;;;;;;;;;;;;4937229;29;20393;-89
2022/12/04 13:19:51;;;;;;;;;;;;;;;;;;4936914;29;20001;-85
2022/12/04 13:22:17;;;;;;;;;;;;;;;;;;4904337;29;19922;-88
2022/12/04 13:24:42;;;;;;;;;;;;;;;;;;4916708;29;19919;-86
2022/12/04 13:27:08;;;;;;;;;;;;;;;;;;4885391;29;19911;-89
2022/12/04 13:29:33;;;;;;;;;;;;;;;;;;4917306;29;20351;-90
2022/12/04 13:31:59;;;;;;;;;;;;;;;;;;4917443;29;19922;-88
2022/12/04 13:34:24;;;;;;;;;;;;;;;;;;4933508;29;19922;-90
2022/12/04 13:36:50;;;;;;;;;;;;;;;;;;4886561;29;19915;-90
2022/12/04 13:39:16;;;;;;;;;;;;;;;;;;4904103;29;20249;-89
2022/12/04 13:41:41;;;;;;;;;;;;;;;;;;4933355;29;19915;-88
2022/12/04 13:44:07;;;;;;;;;;;;;;;;;;4889268;29;19927;-91
2022/12/04 13:46:35;;;;;;;;;;;;;;;;;;4902821;29;20331;-90
2022/12/04 13:49:01;;;;;;;;;;;;;;;;;;4902677;29;19915;-90
2022/12/04 13:51:26;;;;;;;;;;;;;;;;;;4917675;29;20002;-89
2022/12/04 13:53:52;;;;;;;;;;;;;;;;;;4900854;29;19919;-88
2022/12/04 13:56:17;;;;;;;;;;;;;;;;;;4918701;29;20371;-90
2022/12/04 13:58:43;;;;;;;;;;;;;;;;;;4890108;29;19923;-91
2022/12/04 14:01:11;;;;;;;;;;;;;;;;;;4900296;29;19951;-89
2022/12/04 14:03:37;;;;;;;;;;;;;;;;;;4899569;29;19915;-88
2022/12/04 14:06:06;;;;;;;;;;;;;;;;;;4899678;29;20307;-91
2022/12/04 14:08:31;;;;;;;;;;;;;;;;;;4889784;29;19923;-90
2022/12/04 14:10:57;;;;;;;;;;;;;;;;;;4899542;29;20284;-91
2022/12/04 14:13:22;;;;;;;;;;;;;;;;;;4915094;29;19923;-90
2022/12/04 14:15:48;;;;;;;;;;;;;;;;;;4893521;29;19985;-89
2022/12/04 14:18:13;;;;;;;;;;;;;;;;;;4899445;29;20412;-89
2022/12/04 14:26:04;;;;;;;;;;;;;;;;;;5972327;23;19945;-84
2022/12/04 14:28:34;;;;;;;;;;;;;;;;;;5076922;23;20015;-83
2022/12/04 14:33:41;;;;;;;;;;;;;;;;;;5124356;23;19926;-84
2022/12/04 14:38:43;;;;;;;;;;;;;;;;;;5241095;23;20233;-83
2022/12/04 14:41:15;;;;;;;;;;;;;;;;;;4948900;28;19906;-84
2022/12/04 14:43:42;;;;;;;;;;;;;;;;;;5257042;23;19911;-82
2022/12/04 14:46:07;;;;;;;;;;;;;;;;;;4959461;28;19911;-84
2022/12/04 14:48:33;;;;;;;;;;;;;;;;;;4959089;28;19910;-83
2022/12/04 21:27:24;;;;;;;;;;;;;;;;;;5889852;23;19918;-82
2022/12/04 21:29:51;;;;;;;;;;;;;;;;;;5150534;23;19927;-84
2022/12/04 21:32:33;;;;;;;;;;;;;;;;;;5065557;23;19927;-85
2022/12/04 21:35:00;;;;;;;;;;;;;;;;;;4963385;29;19921;-85
2022/12/04 21:37:26;;;;;;;;;;;;;;;;;;4978784;28;19903;-85
2022/12/04 21:39:53;;;;;;;;;;;;;;;;;;4979339;28;19909;-84
2022/12/04 21:47:57;;;;;;;;;;;;;;;;;;5377754;23;19914;-84
2022/12/04 21:50:23;;;;;;;;;;;;;;;;;;4978487;28;19986;-84
2022/12/04 21:52:53;;;;;;;;;;;;;;;;;;4947942;28;19933;-83
2022/12/04 22:03:26;;;;;;;;;;;;;;;;;;5594518;23;19910;-83
2022/12/04 22:22:02;;;;;;;;;;;;;;;;;;5792835;23;19926;-84
2022/12/04 22:24:28;;;;;;;;;;;;;;;;;;5488044;23;20684;-85
2022/12/04 22:32:17;;;;;;;;;;;;;;;;;;5780682;23;19926;-85
2022/12/04 22:37:25;;;;;;;;;;;;;;;;;;5755245;23;19922;-84
2022/12/04 22:39:53;;;;;;;;;;;;;;;;;;4984075;28;19902;-84
2022/12/04 22:47:46;;;;;;;;;;;;;;;;;;5443676;23;19961;-85
2022/12/04 22:50:13;;;;;;;;;;;;;;;;;;4983494;28;19965;-83
2022/12/04 22:52:42;;;;;;;;;;;;;;;;;;4968070;28;19902;-83
2022/12/04 22:55:08;;;;;;;;;;;;;;;;;;4951173;29;19967;-83
2022/12/04 22:57:34;;;;;;;;;;;;;;;;;;5216107;23;19927;-82
2022/12/04 23:00:00;;;;;;;;;;;;;;;;;;4963784;28;19919;-84
2022/12/04 23:05:10;;;;;;;;;;;;;;;;;;4901526;26;19978;-82
2022/12/04 23:12:56;;;;;;;;;;;;;;;;;;5644391;23;19926;-83
2022/12/04 23:15:22;;;;;;;;;;;;;;;;;;5627556;23;19976;-86
